sensor_id;sensor_type;location;lat;lon;timestamp;P1;durP1;ratioP1;P2;durP2;ratioP2
47155;SDS011;32908;52.344;16.858;2023-03-19T00:02:11;120.10;;;58.80;;
47155;SDS011;32908;52.344;16.858;2023-03-19T00:04:43;116.30;;;60.30;;
47155;SDS011;32908;52.344;16.858;2023-03-19T00:07:15;114.40;;;58.40;;
47155;SDS011;32908;52.344;16.858;2023-03-19T00:09:46;115.50;;;58.40;;
47155;SDS011;32908;52.344;16.858;2023-03-19T00:12:18;107.10;;;54.50;;
47155;SDS011;32908;52.344;16.858;2023-03-19T00:14:49;114.40;;;56.30;;
47155;SDS011;32908;52.344;16.858;2023-03-19T00:17:20;106.40;;;53.60;;
47155;SDS011;32908;52.344;16.858;2023-03-19T00:19:51;101.10;;;51.80;;
47155;SDS011;32908;52.344;16.858;2023-03-19T00:22:23;99.10;;;49.70;;
47155;SDS011;32908;52.344;16.858;2023-03-19T00:24:54;107.20;;;53.80;;
47155;SDS011;32908;52.344;16.858;2023-03-19T00:27:26;101.60;;;50.80;;
47155;SDS011;32908;52.344;16.858;2023-03-19T00:29:57;97.80;;;48.60;;
47155;SDS011;32908;52.344;16.858;2023-03-19T00:32:29;97.50;;;48.20;;
47155;SDS011;32908;52.344;16.858;2023-03-19T00:35:01;94.90;;;47.90;;
47155;SDS011;32908;52.344;16.858;2023-03-19T00:37:33;93.30;;;47.90;;
47155;SDS011;32908;52.344;16.858;2023-03-19T00:40:06;92.50;;;47.30;;
47155;SDS011;32908;52.344;16.858;2023-03-19T00:42:39;91.20;;;46.00;;
47155;SDS011;32908;52.344;16.858;2023-03-19T00:45:11;88.70;;;46.90;;
47155;SDS011;32908;52.344;16.858;2023-03-19T00:47:43;92.10;;;47.80;;
47155;SDS011;32908;52.344;16.858;2023-03-19T00:50:15;88.10;;;45.40;;
47155;SDS011;32908;52.344;16.858;2023-03-19T00:52:47;85.10;;;46.00;;
47155;SDS011;32908;52.344;16.858;2023-03-19T00:55:18;85.40;;;44.30;;
47155;SDS011;32908;52.344;16.858;2023-03-19T00:57:49;88.90;;;45.80;;
47155;SDS011;32908;52.344;16.858;2023-03-19T01:00:20;80.80;;;43.00;;
47155;SDS011;32908;52.344;16.858;2023-03-19T01:02:52;88.80;;;46.00;;
47155;SDS011;32908;52.344;16.858;2023-03-19T01:05:23;86.20;;;46.90;;
47155;SDS011;32908;52.344;16.858;2023-03-19T01:07:55;91.10;;;44.80;;
47155;SDS011;32908;52.344;16.858;2023-03-19T01:10:26;79.10;;;42.50;;
47155;SDS011;32908;52.344;16.858;2023-03-19T01:12:58;84.10;;;43.90;;
47155;SDS011;32908;52.344;16.858;2023-03-19T01:15:29;87.20;;;44.00;;
47155;SDS011;32908;52.344;16.858;2023-03-19T01:18:03;81.00;;;42.90;;
47155;SDS011;32908;52.344;16.858;2023-03-19T01:20:34;82.80;;;42.20;;
47155;SDS011;32908;52.344;16.858;2023-03-19T01:23:06;78.80;;;41.10;;
47155;SDS011;32908;52.344;16.858;2023-03-19T01:25:37;76.10;;;40.30;;
47155;SDS011;32908;52.344;16.858;2023-03-19T01:28:09;83.30;;;41.60;;
47155;SDS011;32908;52.344;16.858;2023-03-19T01:30:40;76.60;;;42.20;;
47155;SDS011;32908;52.344;16.858;2023-03-19T01:33:12;82.90;;;42.10;;
47155;SDS011;32908;52.344;16.858;2023-03-19T01:35:45;80.60;;;41.50;;
47155;SDS011;32908;52.344;16.858;2023-03-19T01:38:17;73.00;;;39.70;;
47155;SDS011;32908;52.344;16.858;2023-03-19T01:40:49;69.30;;;40.10;;
47155;SDS011;32908;52.344;16.858;2023-03-19T01:43:20;71.90;;;39.10;;
47155;SDS011;32908;52.344;16.858;2023-03-19T01:45:53;71.20;;;39.20;;
47155;SDS011;32908;52.344;16.858;2023-03-19T01:48:28;70.30;;;38.60;;
47155;SDS011;32908;52.344;16.858;2023-03-19T01:51:04;70.00;;;37.60;;
47155;SDS011;32908;52.344;16.858;2023-03-19T01:53:38;72.20;;;39.10;;
47155;SDS011;32908;52.344;16.858;2023-03-19T01:56:11;72.20;;;39.40;;
47155;SDS011;32908;52.344;16.858;2023-03-19T01:58:43;74.60;;;39.10;;
47155;SDS011;32908;52.344;16.858;2023-03-19T02:01:16;71.40;;;37.70;;
47155;SDS011;32908;52.344;16.858;2023-03-19T02:03:48;66.40;;;37.00;;
47155;SDS011;32908;52.344;16.858;2023-03-19T02:06:19;69.10;;;37.50;;
47155;SDS011;32908;52.344;16.858;2023-03-19T02:08:51;67.00;;;36.40;;
47155;SDS011;32908;52.344;16.858;2023-03-19T02:11:22;69.00;;;36.90;;
47155;SDS011;32908;52.344;16.858;2023-03-19T02:13:54;69.10;;;37.50;;
47155;SDS011;32908;52.344;16.858;2023-03-19T02:16:25;67.90;;;36.90;;
47155;SDS011;32908;52.344;16.858;2023-03-19T02:18:56;68.10;;;37.00;;
47155;SDS011;32908;52.344;16.858;2023-03-19T02:21:28;68.00;;;36.30;;
47155;SDS011;32908;52.344;16.858;2023-03-19T02:24:00;67.10;;;36.60;;
47155;SDS011;32908;52.344;16.858;2023-03-19T02:26:35;64.40;;;36.50;;
47155;SDS011;32908;52.344;16.858;2023-03-19T02:29:07;63.50;;;35.50;;
47155;SDS011;32908;52.344;16.858;2023-03-19T02:31:38;68.40;;;38.80;;
47155;SDS011;32908;52.344;16.858;2023-03-19T02:37:06;70.90;;;37.50;;
47155;SDS011;32908;52.344;16.858;2023-03-19T02:39:43;73.50;;;39.00;;
47155;SDS011;32908;52.344;16.858;2023-03-19T02:42:19;67.40;;;38.20;;
47155;SDS011;32908;52.344;16.858;2023-03-19T02:44:51;69.30;;;39.70;;
47155;SDS011;32908;52.344;16.858;2023-03-19T02:47:24;74.40;;;37.10;;
47155;SDS011;32908;52.344;16.858;2023-03-19T02:49:56;63.90;;;35.80;;
47155;SDS011;32908;52.344;16.858;2023-03-19T02:52:27;68.20;;;37.60;;
47155;SDS011;32908;52.344;16.858;2023-03-19T02:54:58;67.40;;;36.10;;
47155;SDS011;32908;52.344;16.858;2023-03-19T02:57:29;68.90;;;36.30;;
47155;SDS011;32908;52.344;16.858;2023-03-19T03:00:01;67.20;;;36.70;;
47155;SDS011;32908;52.344;16.858;2023-03-19T03:02:33;63.40;;;35.40;;
47155;SDS011;32908;52.344;16.858;2023-03-19T03:05:05;64.60;;;36.20;;
47155;SDS011;32908;52.344;16.858;2023-03-19T03:07:37;58.70;;;33.40;;
47155;SDS011;32908;52.344;16.858;2023-03-19T03:10:12;62.90;;;35.00;;
47155;SDS011;32908;52.344;16.858;2023-03-19T03:12:43;62.60;;;34.40;;
47155;SDS011;32908;52.344;16.858;2023-03-19T03:15:14;66.50;;;35.80;;
47155;SDS011;32908;52.344;16.858;2023-03-19T03:17:46;65.10;;;35.30;;
47155;SDS011;32908;52.344;16.858;2023-03-19T03:20:17;62.60;;;34.90;;
47155;SDS011;32908;52.344;16.858;2023-03-19T03:22:49;60.70;;;34.20;;
47155;SDS011;32908;52.344;16.858;2023-03-19T03:25:21;59.20;;;34.40;;
47155;SDS011;32908;52.344;16.858;2023-03-19T03:27:52;63.50;;;34.10;;
47155;SDS011;32908;52.344;16.858;2023-03-19T03:30:24;65.80;;;34.60;;
47155;SDS011;32908;52.344;16.858;2023-03-19T03:32:55;59.20;;;34.60;;
47155;SDS011;32908;52.344;16.858;2023-03-19T03:35:27;63.80;;;34.30;;
47155;SDS011;32908;52.344;16.858;2023-03-19T03:37:58;62.60;;;33.70;;
47155;SDS011;32908;52.344;16.858;2023-03-19T03:40:30;64.40;;;34.00;;
47155;SDS011;32908;52.344;16.858;2023-03-19T03:43:01;64.80;;;35.20;;
47155;SDS011;32908;52.344;16.858;2023-03-19T03:45:32;55.50;;;32.60;;
47155;SDS011;32908;52.344;16.858;2023-03-19T03:48:04;58.30;;;33.50;;
47155;SDS011;32908;52.344;16.858;2023-03-19T03:50:35;62.50;;;35.60;;
47155;SDS011;32908;52.344;16.858;2023-03-19T03:53:06;65.30;;;34.20;;
47155;SDS011;32908;52.344;16.858;2023-03-19T03:55:39;61.40;;;34.20;;
47155;SDS011;32908;52.344;16.858;2023-03-19T03:58:10;56.90;;;32.80;;
47155;SDS011;32908;52.344;16.858;2023-03-19T04:00:41;61.20;;;31.80;;
47155;SDS011;32908;52.344;16.858;2023-03-19T04:03:13;61.30;;;34.10;;
47155;SDS011;32908;52.344;16.858;2023-03-19T04:05:44;56.20;;;31.10;;
47155;SDS011;32908;52.344;16.858;2023-03-19T04:08:16;55.80;;;31.30;;
47155;SDS011;32908;52.344;16.858;2023-03-19T04:10:47;59.80;;;33.80;;
47155;SDS011;32908;52.344;16.858;2023-03-19T04:13:19;54.30;;;32.00;;
47155;SDS011;32908;52.344;16.858;2023-03-19T04:15:50;58.60;;;32.50;;
47155;SDS011;32908;52.344;16.858;2023-03-19T04:18:22;61.50;;;33.20;;
47155;SDS011;32908;52.344;16.858;2023-03-19T04:20:54;58.60;;;32.70;;
47155;SDS011;32908;52.344;16.858;2023-03-19T04:23:25;56.40;;;31.90;;
47155;SDS011;32908;52.344;16.858;2023-03-19T04:25:58;58.60;;;32.90;;
47155;SDS011;32908;52.344;16.858;2023-03-19T04:28:29;55.80;;;31.00;;
47155;SDS011;32908;52.344;16.858;2023-03-19T04:31:01;55.30;;;31.60;;
47155;SDS011;32908;52.344;16.858;2023-03-19T04:33:33;57.60;;;32.30;;
47155;SDS011;32908;52.344;16.858;2023-03-19T04:36:07;53.20;;;32.00;;
47155;SDS011;32908;52.344;16.858;2023-03-19T04:38:38;54.30;;;31.70;;
47155;SDS011;32908;52.344;16.858;2023-03-19T04:41:09;58.30;;;32.60;;
47155;SDS011;32908;52.344;16.858;2023-03-19T04:43:42;55.70;;;31.40;;
47155;SDS011;32908;52.344;16.858;2023-03-19T04:46:14;59.20;;;31.90;;
47155;SDS011;32908;52.344;16.858;2023-03-19T04:48:45;56.10;;;32.50;;
47155;SDS011;32908;52.344;16.858;2023-03-19T04:51:17;58.40;;;33.30;;
47155;SDS011;32908;52.344;16.858;2023-03-19T04:53:49;65.00;;;34.10;;
47155;SDS011;32908;52.344;16.858;2023-03-19T04:56:20;62.60;;;33.90;;
47155;SDS011;32908;52.344;16.858;2023-03-19T04:58:51;64.00;;;35.10;;
47155;SDS011;32908;52.344;16.858;2023-03-19T05:01:22;63.80;;;35.20;;
47155;SDS011;32908;52.344;16.858;2023-03-19T05:03:54;62.70;;;33.90;;
47155;SDS011;32908;52.344;16.858;2023-03-19T05:06:25;61.60;;;34.80;;
47155;SDS011;32908;52.344;16.858;2023-03-19T05:08:56;60.60;;;32.50;;
47155;SDS011;32908;52.344;16.858;2023-03-19T05:11:28;67.40;;;35.50;;
47155;SDS011;32908;52.344;16.858;2023-03-19T05:13:59;68.60;;;35.80;;
47155;SDS011;32908;52.344;16.858;2023-03-19T05:16:30;69.20;;;36.60;;
47155;SDS011;32908;52.344;16.858;2023-03-19T05:19:02;63.20;;;35.20;;
47155;SDS011;32908;52.344;16.858;2023-03-19T05:21:34;67.10;;;36.90;;
47155;SDS011;32908;52.344;16.858;2023-03-19T05:24:05;70.40;;;37.90;;
47155;SDS011;32908;52.344;16.858;2023-03-19T05:26:37;67.00;;;36.40;;
47155;SDS011;32908;52.344;16.858;2023-03-19T05:29:09;72.40;;;37.70;;
47155;SDS011;32908;52.344;16.858;2023-03-19T05:31:42;73.20;;;38.40;;
47155;SDS011;32908;52.344;16.858;2023-03-19T05:34:15;75.20;;;37.90;;
47155;SDS011;32908;52.344;16.858;2023-03-19T05:36:46;68.80;;;37.20;;
47155;SDS011;32908;52.344;16.858;2023-03-19T05:39:17;72.80;;;38.00;;
47155;SDS011;32908;52.344;16.858;2023-03-19T05:41:48;79.50;;;38.00;;
47155;SDS011;32908;52.344;16.858;2023-03-19T05:44:19;75.10;;;37.90;;
47155;SDS011;32908;52.344;16.858;2023-03-19T05:46:51;70.80;;;37.60;;
47155;SDS011;32908;52.344;16.858;2023-03-19T05:49:22;66.80;;;35.80;;
47155;SDS011;32908;52.344;16.858;2023-03-19T05:51:54;73.30;;;37.10;;
47155;SDS011;32908;52.344;16.858;2023-03-19T05:54:25;65.20;;;35.20;;
47155;SDS011;32908;52.344;16.858;2023-03-19T05:56:56;60.80;;;34.60;;
47155;SDS011;32908;52.344;16.858;2023-03-19T05:59:27;61.60;;;34.70;;
47155;SDS011;32908;52.344;16.858;2023-03-19T06:01:58;60.40;;;33.90;;
47155;SDS011;32908;52.344;16.858;2023-03-19T06:04:30;61.30;;;34.10;;
47155;SDS011;32908;52.344;16.858;2023-03-19T06:07:01;56.80;;;31.20;;
47155;SDS011;32908;52.344;16.858;2023-03-19T06:09:33;57.00;;;32.30;;
47155;SDS011;32908;52.344;16.858;2023-03-19T06:12:04;57.80;;;32.50;;
47155;SDS011;32908;52.344;16.858;2023-03-19T06:14:36;59.10;;;32.30;;
47155;SDS011;32908;52.344;16.858;2023-03-19T06:17:07;59.30;;;32.30;;
47155;SDS011;32908;52.344;16.858;2023-03-19T06:19:39;51.60;;;30.30;;
47155;SDS011;32908;52.344;16.858;2023-03-19T06:22:10;52.90;;;31.50;;
47155;SDS011;32908;52.344;16.858;2023-03-19T06:24:42;59.10;;;31.80;;
47155;SDS011;32908;52.344;16.858;2023-03-19T06:27:13;58.50;;;31.40;;
47155;SDS011;32908;52.344;16.858;2023-03-19T06:29:44;57.30;;;31.80;;
47155;SDS011;32908;52.344;16.858;2023-03-19T06:32:16;53.70;;;31.20;;
47155;SDS011;32908;52.344;16.858;2023-03-19T06:34:48;54.40;;;31.30;;
47155;SDS011;32908;52.344;16.858;2023-03-19T06:37:20;54.50;;;31.90;;
47155;SDS011;32908;52.344;16.858;2023-03-19T06:39:52;55.80;;;33.10;;
47155;SDS011;32908;52.344;16.858;2023-03-19T06:42:23;55.50;;;31.30;;
47155;SDS011;32908;52.344;16.858;2023-03-19T06:44:54;54.40;;;32.10;;
47155;SDS011;32908;52.344;16.858;2023-03-19T06:47:25;52.20;;;30.80;;
47155;SDS011;32908;52.344;16.858;2023-03-19T06:49:58;55.70;;;31.40;;
47155;SDS011;32908;52.344;16.858;2023-03-19T06:52:30;52.10;;;30.60;;
47155;SDS011;32908;52.344;16.858;2023-03-19T06:55:01;56.70;;;32.80;;
47155;SDS011;32908;52.344;16.858;2023-03-19T06:57:33;55.70;;;30.80;;
47155;SDS011;32908;52.344;16.858;2023-03-19T07:00:04;55.80;;;31.20;;
47155;SDS011;32908;52.344;16.858;2023-03-19T07:02:38;50.90;;;30.10;;
47155;SDS011;32908;52.344;16.858;2023-03-19T07:05:10;59.50;;;33.00;;
47155;SDS011;32908;52.344;16.858;2023-03-19T07:07:42;58.30;;;32.20;;
47155;SDS011;32908;52.344;16.858;2023-03-19T07:12:46;50.80;;;31.10;;
47155;SDS011;32908;52.344;16.858;2023-03-19T07:15:17;52.40;;;31.00;;
47155;SDS011;32908;52.344;16.858;2023-03-19T07:17:49;54.40;;;31.00;;
47155;SDS011;32908;52.344;16.858;2023-03-19T07:20:20;53.80;;;30.60;;
47155;SDS011;32908;52.344;16.858;2023-03-19T07:22:51;54.50;;;31.20;;
47155;SDS011;32908;52.344;16.858;2023-03-19T07:25:22;52.90;;;30.60;;
47155;SDS011;32908;52.344;16.858;2023-03-19T07:27:54;49.00;;;29.80;;
47155;SDS011;32908;52.344;16.858;2023-03-19T07:30:25;53.90;;;31.70;;
47155;SDS011;32908;52.344;16.858;2023-03-19T07:32:58;53.40;;;31.60;;
47155;SDS011;32908;52.344;16.858;2023-03-19T07:35:29;54.50;;;32.10;;
47155;SDS011;32908;52.344;16.858;2023-03-19T07:38:00;56.60;;;32.50;;
47155;SDS011;32908;52.344;16.858;2023-03-19T07:40:31;56.20;;;30.30;;
47155;SDS011;32908;52.344;16.858;2023-03-19T07:43:03;55.90;;;32.30;;
47155;SDS011;32908;52.344;16.858;2023-03-19T07:45:35;57.60;;;33.90;;
47155;SDS011;32908;52.344;16.858;2023-03-19T07:48:07;57.60;;;34.10;;
47155;SDS011;32908;52.344;16.858;2023-03-19T07:50:39;56.30;;;32.40;;
47155;SDS011;32908;52.344;16.858;2023-03-19T07:53:10;57.20;;;34.50;;
47155;SDS011;32908;52.344;16.858;2023-03-19T07:55:42;55.40;;;33.50;;
47155;SDS011;32908;52.344;16.858;2023-03-19T07:58:13;56.20;;;33.10;;
47155;SDS011;32908;52.344;16.858;2023-03-19T08:00:44;52.50;;;31.50;;
47155;SDS011;32908;52.344;16.858;2023-03-19T08:03:16;52.90;;;30.90;;
47155;SDS011;32908;52.344;16.858;2023-03-19T08:05:48;53.00;;;30.50;;
47155;SDS011;32908;52.344;16.858;2023-03-19T08:08:19;63.90;;;32.40;;
47155;SDS011;32908;52.344;16.858;2023-03-19T08:10:51;67.80;;;34.80;;
47155;SDS011;32908;52.344;16.858;2023-03-19T08:13:23;70.10;;;35.40;;
47155;SDS011;32908;52.344;16.858;2023-03-19T08:15:54;52.70;;;31.00;;
47155;SDS011;32908;52.344;16.858;2023-03-19T08:18:25;51.50;;;29.30;;
47155;SDS011;32908;52.344;16.858;2023-03-19T08:20:56;49.70;;;26.90;;
47155;SDS011;32908;52.344;16.858;2023-03-19T08:23:27;46.20;;;28.30;;
47155;SDS011;32908;52.344;16.858;2023-03-19T08:25:59;47.60;;;28.20;;
47155;SDS011;32908;52.344;16.858;2023-03-19T08:28:30;46.70;;;27.50;;
47155;SDS011;32908;52.344;16.858;2023-03-19T08:31:06;45.40;;;26.60;;
47155;SDS011;32908;52.344;16.858;2023-03-19T08:33:38;44.60;;;27.50;;
47155;SDS011;32908;52.344;16.858;2023-03-19T08:36:11;45.40;;;27.50;;
47155;SDS011;32908;52.344;16.858;2023-03-19T08:38:43;45.00;;;27.10;;
47155;SDS011;32908;52.344;16.858;2023-03-19T08:41:14;43.60;;;26.40;;
47155;SDS011;32908;52.344;16.858;2023-03-19T08:43:45;44.60;;;26.60;;
47155;SDS011;32908;52.344;16.858;2023-03-19T08:46:17;47.70;;;29.80;;
47155;SDS011;32908;52.344;16.858;2023-03-19T08:48:48;50.20;;;29.70;;
47155;SDS011;32908;52.344;16.858;2023-03-19T08:51:19;48.00;;;27.50;;
47155;SDS011;32908;52.344;16.858;2023-03-19T08:53:53;40.70;;;25.50;;
47155;SDS011;32908;52.344;16.858;2023-03-19T08:56:24;44.80;;;26.70;;
47155;SDS011;32908;52.344;16.858;2023-03-19T08:58:56;40.10;;;26.50;;
47155;SDS011;32908;52.344;16.858;2023-03-19T09:01:27;46.80;;;27.50;;
47155;SDS011;32908;52.344;16.858;2023-03-19T09:03:58;46.20;;;28.10;;
47155;SDS011;32908;52.344;16.858;2023-03-19T09:06:31;41.90;;;26.10;;
47155;SDS011;32908;52.344;16.858;2023-03-19T09:09:02;38.50;;;24.00;;
47155;SDS011;32908;52.344;16.858;2023-03-19T09:11:34;36.20;;;24.20;;
47155;SDS011;32908;52.344;16.858;2023-03-19T09:14:06;37.40;;;23.90;;
47155;SDS011;32908;52.344;16.858;2023-03-19T09:16:38;38.20;;;24.60;;
47155;SDS011;32908;52.344;16.858;2023-03-19T09:19:10;39.10;;;22.40;;
47155;SDS011;32908;52.344;16.858;2023-03-19T09:21:41;36.60;;;21.50;;
47155;SDS011;32908;52.344;16.858;2023-03-19T09:24:13;33.70;;;20.70;;
47155;SDS011;32908;52.344;16.858;2023-03-19T09:26:45;30.60;;;20.20;;
47155;SDS011;32908;52.344;16.858;2023-03-19T09:29:17;34.90;;;21.00;;
47155;SDS011;32908;52.344;16.858;2023-03-19T09:31:49;31.80;;;20.00;;
47155;SDS011;32908;52.344;16.858;2023-03-19T09:34:20;33.40;;;20.80;;
47155;SDS011;32908;52.344;16.858;2023-03-19T09:36:51;32.30;;;19.50;;
47155;SDS011;32908;52.344;16.858;2023-03-19T09:39:23;29.30;;;18.60;;
47155;SDS011;32908;52.344;16.858;2023-03-19T09:41:58;32.30;;;18.70;;
47155;SDS011;32908;52.344;16.858;2023-03-19T09:44:34;30.40;;;18.70;;
47155;SDS011;32908;52.344;16.858;2023-03-19T09:47:11;25.20;;;16.80;;
47155;SDS011;32908;52.344;16.858;2023-03-19T09:49:58;24.30;;;16.30;;
47155;SDS011;32908;52.344;16.858;2023-03-19T09:52:33;22.80;;;15.00;;
47155;SDS011;32908;52.344;16.858;2023-03-19T09:55:12;26.20;;;16.40;;
47155;SDS011;32908;52.344;16.858;2023-03-19T09:57:53;29.40;;;18.50;;
47155;SDS011;32908;52.344;16.858;2023-03-19T10:00:27;26.60;;;17.00;;
47155;SDS011;32908;52.344;16.858;2023-03-19T10:03:02;29.00;;;17.70;;
47155;SDS011;32908;52.344;16.858;2023-03-19T10:05:43;24.30;;;15.80;;
47155;SDS011;32908;52.344;16.858;2023-03-19T10:08:26;24.70;;;16.80;;
47155;SDS011;32908;52.344;16.858;2023-03-19T10:11:13;28.60;;;16.90;;
47155;SDS011;32908;52.344;16.858;2023-03-19T10:13:58;27.20;;;16.50;;
47155;SDS011;32908;52.344;16.858;2023-03-19T10:16:36;27.40;;;17.20;;
47155;SDS011;32908;52.344;16.858;2023-03-19T10:19:09;27.90;;;17.10;;
47155;SDS011;32908;52.344;16.858;2023-03-19T10:21:44;25.70;;;16.90;;
47155;SDS011;32908;52.344;16.858;2023-03-19T10:24:17;27.10;;;16.60;;
47155;SDS011;32908;52.344;16.858;2023-03-19T10:29:26;38.10;;;20.50;;
47155;SDS011;32908;52.344;16.858;2023-03-19T10:31:59;28.10;;;16.80;;
47155;SDS011;32908;52.344;16.858;2023-03-19T10:34:36;24.00;;;16.60;;
47155;SDS011;32908;52.344;16.858;2023-03-19T10:37:14;29.50;;;18.20;;
47155;SDS011;32908;52.344;16.858;2023-03-19T10:39:47;35.30;;;22.40;;
47155;SDS011;32908;52.344;16.858;2023-03-19T10:42:36;36.20;;;23.70;;
47155;SDS011;32908;52.344;16.858;2023-03-19T10:45:15;40.50;;;24.60;;
47155;SDS011;32908;52.344;16.858;2023-03-19T10:47:52;39.70;;;24.20;;
47155;SDS011;32908;52.344;16.858;2023-03-19T10:50:27;47.50;;;29.00;;
47155;SDS011;32908;52.344;16.858;2023-03-19T10:55:32;46.20;;;26.80;;
47155;SDS011;32908;52.344;16.858;2023-03-19T10:58:04;47.80;;;28.40;;
47155;SDS011;32908;52.344;16.858;2023-03-19T11:00:45;41.70;;;25.60;;
47155;SDS011;32908;52.344;16.858;2023-03-19T11:03:27;40.50;;;24.80;;
47155;SDS011;32908;52.344;16.858;2023-03-19T11:06:04;40.80;;;23.50;;
47155;SDS011;32908;52.344;16.858;2023-03-19T11:08:50;35.50;;;23.20;;
47155;SDS011;32908;52.344;16.858;2023-03-19T11:11:24;37.90;;;23.60;;
47155;SDS011;32908;52.344;16.858;2023-03-19T11:14:13;43.80;;;23.60;;
47155;SDS011;32908;52.344;16.858;2023-03-19T11:16:49;36.50;;;24.10;;
47155;SDS011;32908;52.344;16.858;2023-03-19T11:19:25;40.30;;;23.40;;
47155;SDS011;32908;52.344;16.858;2023-03-19T11:22:03;37.20;;;23.50;;
47155;SDS011;32908;52.344;16.858;2023-03-19T11:24:41;36.60;;;23.30;;
47155;SDS011;32908;52.344;16.858;2023-03-19T11:27:19;43.10;;;26.00;;
47155;SDS011;32908;52.344;16.858;2023-03-19T11:29:56;47.00;;;29.40;;
47155;SDS011;32908;52.344;16.858;2023-03-19T11:35:40;39.30;;;25.90;;
47155;SDS011;32908;52.344;16.858;2023-03-19T11:38:17;49.10;;;30.50;;
47155;SDS011;32908;52.344;16.858;2023-03-19T11:40:56;41.40;;;26.20;;
47155;SDS011;32908;52.344;16.858;2023-03-19T11:43:38;39.80;;;25.70;;
47155;SDS011;32908;52.344;16.858;2023-03-19T11:46:18;44.90;;;26.60;;
47155;SDS011;32908;52.344;16.858;2023-03-19T11:48:59;37.60;;;24.40;;
47155;SDS011;32908;52.344;16.858;2023-03-19T11:51:40;36.60;;;24.00;;
47155;SDS011;32908;52.344;16.858;2023-03-19T11:54:16;38.30;;;23.50;;
47155;SDS011;32908;52.344;16.858;2023-03-19T11:56:53;37.20;;;23.80;;
47155;SDS011;32908;52.344;16.858;2023-03-19T11:59:42;39.70;;;24.30;;
47155;SDS011;32908;52.344;16.858;2023-03-19T12:02:32;42.10;;;24.20;;
47155;SDS011;32908;52.344;16.858;2023-03-19T12:05:17;35.70;;;23.10;;
47155;SDS011;32908;52.344;16.858;2023-03-19T12:07:55;39.00;;;24.90;;
47155;SDS011;32908;52.344;16.858;2023-03-19T12:10:35;39.90;;;23.80;;
47155;SDS011;32908;52.344;16.858;2023-03-19T12:13:22;36.30;;;22.50;;
47155;SDS011;32908;52.344;16.858;2023-03-19T12:16:01;36.10;;;22.30;;
47155;SDS011;32908;52.344;16.858;2023-03-19T12:18:45;37.00;;;22.20;;
47155;SDS011;32908;52.344;16.858;2023-03-19T12:21:24;33.70;;;21.90;;
47155;SDS011;32908;52.344;16.858;2023-03-19T12:24:00;32.40;;;20.30;;
47155;SDS011;32908;52.344;16.858;2023-03-19T12:26:38;36.60;;;23.00;;
47155;SDS011;32908;52.344;16.858;2023-03-19T12:29:17;32.10;;;21.00;;
47155;SDS011;32908;52.344;16.858;2023-03-19T12:31:58;33.10;;;21.00;;
47155;SDS011;32908;52.344;16.858;2023-03-19T12:34:38;33.10;;;20.80;;
47155;SDS011;32908;52.344;16.858;2023-03-19T12:37:13;33.00;;;21.20;;
47155;SDS011;32908;52.344;16.858;2023-03-19T12:39:49;31.90;;;20.00;;
47155;SDS011;32908;52.344;16.858;2023-03-19T12:42:25;34.60;;;20.70;;
47155;SDS011;32908;52.344;16.858;2023-03-19T12:45:01;29.80;;;20.10;;
47155;SDS011;32908;52.344;16.858;2023-03-19T12:47:35;36.00;;;22.60;;
47155;SDS011;32908;52.344;16.858;2023-03-19T12:50:08;34.50;;;21.20;;
47155;SDS011;32908;52.344;16.858;2023-03-19T12:52:42;40.00;;;21.30;;
47155;SDS011;32908;52.344;16.858;2023-03-19T12:55:16;38.20;;;25.00;;
47155;SDS011;32908;52.344;16.858;2023-03-19T12:57:49;33.90;;;22.90;;
47155;SDS011;32908;52.344;16.858;2023-03-19T13:00:24;34.80;;;22.50;;
47155;SDS011;32908;52.344;16.858;2023-03-19T13:02:58;35.50;;;22.80;;
47155;SDS011;32908;52.344;16.858;2023-03-19T13:05:34;41.50;;;23.90;;
47155;SDS011;32908;52.344;16.858;2023-03-19T13:08:09;37.70;;;23.20;;
47155;SDS011;32908;52.344;16.858;2023-03-19T13:10:43;32.60;;;22.00;;
47155;SDS011;32908;52.344;16.858;2023-03-19T13:13:24;33.20;;;21.30;;
47155;SDS011;32908;52.344;16.858;2023-03-19T13:16:02;36.70;;;22.60;;
47155;SDS011;32908;52.344;16.858;2023-03-19T13:18:35;35.40;;;23.00;;
47155;SDS011;32908;52.344;16.858;2023-03-19T13:21:13;31.60;;;21.50;;
47155;SDS011;32908;52.344;16.858;2023-03-19T13:24:00;33.90;;;21.80;;
47155;SDS011;32908;52.344;16.858;2023-03-19T13:26:37;32.90;;;20.80;;
47155;SDS011;32908;52.344;16.858;2023-03-19T13:29:16;34.60;;;21.50;;
47155;SDS011;32908;52.344;16.858;2023-03-19T13:31:50;30.50;;;21.00;;
47155;SDS011;32908;52.344;16.858;2023-03-19T13:34:24;35.40;;;22.50;;
47155;SDS011;32908;52.344;16.858;2023-03-19T13:37:00;62.10;;;22.90;;
47155;SDS011;32908;52.344;16.858;2023-03-19T13:42:15;30.90;;;20.00;;
47155;SDS011;32908;52.344;16.858;2023-03-19T13:47:57;33.70;;;21.90;;
47155;SDS011;32908;52.344;16.858;2023-03-19T13:50:30;33.80;;;22.50;;
47155;SDS011;32908;52.344;16.858;2023-03-19T13:53:39;34.80;;;24.30;;
47155;SDS011;32908;52.344;16.858;2023-03-19T13:56:11;35.10;;;22.60;;
47155;SDS011;32908;52.344;16.858;2023-03-19T13:58:48;30.90;;;21.90;;
47155;SDS011;32908;52.344;16.858;2023-03-19T14:01:36;30.70;;;20.80;;
47155;SDS011;32908;52.344;16.858;2023-03-19T14:04:18;49.60;;;29.20;;
47155;SDS011;32908;52.344;16.858;2023-03-19T14:06:51;37.80;;;24.20;;
47155;SDS011;32908;52.344;16.858;2023-03-19T14:09:34;33.00;;;21.60;;
47155;SDS011;32908;52.344;16.858;2023-03-19T14:12:11;35.20;;;21.80;;
47155;SDS011;32908;52.344;16.858;2023-03-19T14:14:51;32.10;;;20.40;;
47155;SDS011;32908;52.344;16.858;2023-03-19T14:17:25;36.80;;;21.00;;
47155;SDS011;32908;52.344;16.858;2023-03-19T14:20:02;33.20;;;21.90;;
47155;SDS011;32908;52.344;16.858;2023-03-19T14:22:36;35.00;;;22.50;;
47155;SDS011;32908;52.344;16.858;2023-03-19T14:25:14;34.60;;;23.10;;
47155;SDS011;32908;52.344;16.858;2023-03-19T14:27:47;40.70;;;24.20;;
47155;SDS011;32908;52.344;16.858;2023-03-19T14:30:24;41.90;;;26.20;;
47155;SDS011;32908;52.344;16.858;2023-03-19T14:32:58;47.30;;;27.90;;
47155;SDS011;32908;52.344;16.858;2023-03-19T14:35:32;47.30;;;29.00;;
47155;SDS011;32908;52.344;16.858;2023-03-19T14:38:10;47.50;;;28.30;;
47155;SDS011;32908;52.344;16.858;2023-03-19T14:40:48;51.30;;;29.60;;
47155;SDS011;32908;52.344;16.858;2023-03-19T14:43:23;49.40;;;27.90;;
47155;SDS011;32908;52.344;16.858;2023-03-19T14:46:12;40.20;;;26.10;;
47155;SDS011;32908;52.344;16.858;2023-03-19T14:48:57;45.60;;;26.40;;
47155;SDS011;32908;52.344;16.858;2023-03-19T14:54:34;38.00;;;23.00;;
47155;SDS011;32908;52.344;16.858;2023-03-19T14:59:44;38.20;;;24.50;;
47155;SDS011;32908;52.344;16.858;2023-03-19T15:02:20;44.90;;;26.40;;
47155;SDS011;32908;52.344;16.858;2023-03-19T15:05:02;40.30;;;26.20;;
47155;SDS011;32908;52.344;16.858;2023-03-19T15:07:36;34.40;;;22.20;;
47155;SDS011;32908;52.344;16.858;2023-03-19T15:10:12;33.20;;;21.90;;
47155;SDS011;32908;52.344;16.858;2023-03-19T15:13:10;32.20;;;21.00;;